createdAt,value
2023-04-12T00:02:00.455Z,8.20
2023-04-12T00:04:29.042Z,8.30
2023-04-12T00:06:58.067Z,8.40
2023-04-12T00:09:30.877Z,8.50
2023-04-12T00:11:59.835Z,8.60
2023-04-12T00:14:27.826Z,8.60
2023-04-12T00:16:56.179Z,8.70
2023-04-12T00:19:27.864Z,8.80
2023-04-12T00:21:56.717Z,8.80
2023-04-12T00:24:26.263Z,8.70
2023-04-12T00:26:54.311Z,8.60
2023-04-12T00:29:22.385Z,8.50
2023-04-12T00:31:50.127Z,8.50
2023-04-12T00:34:17.986Z,8.40
2023-04-12T00:36:45.985Z,8.40
2023-04-12T00:39:13.779Z,8.30
2023-04-12T00:41:41.480Z,8.30
2023-04-12T00:44:10.144Z,8.26
2023-04-12T00:46:38.553Z,8.26
2023-04-12T00:49:06.968Z,8.20
2023-04-12T00:51:34.845Z,8.20
2023-04-12T00:54:03.942Z,8.10
2023-04-12T00:56:32.841Z,8.10
2023-04-12T00:59:04.179Z,8.00
2023-04-12T01:01:32.247Z,8.00
2023-04-12T01:04:01.575Z,7.94
2023-04-12T01:06:49.881Z,7.92
2023-04-12T01:09:54.509Z,7.94
2023-04-12T01:13:12.651Z,7.98
2023-04-12T01:15:55.212Z,8.00
2023-04-12T01:18:28.255Z,8.00
2023-04-12T01:21:08.928Z,8.00
2023-04-12T01:24:26.043Z,8.00
2023-04-12T01:27:00.895Z,8.00
2023-04-12T01:29:31.269Z,8.00
2023-04-12T01:32:02.414Z,8.00
2023-04-12T01:34:33.664Z,8.00
2023-04-12T01:37:03.892Z,8.00
2023-04-12T01:39:34.198Z,8.00
2023-04-12T01:42:02.005Z,8.00
2023-04-12T01:44:29.831Z,7.98
2023-04-12T01:46:57.708Z,8.00
2023-04-12T01:49:40.777Z,8.00
2023-04-12T01:52:16.694Z,8.00
2023-04-12T01:54:54.610Z,8.00
2023-04-12T01:57:24.607Z,8.08
2023-04-12T01:59:56.858Z,8.00
2023-04-12T02:02:26.411Z,8.00
2023-04-12T02:04:55.943Z,8.00
2023-04-12T02:07:23.810Z,8.00
2023-04-12T02:09:51.574Z,8.00
2023-04-12T02:12:19.394Z,8.00
2023-04-12T02:14:48.469Z,8.10
2023-04-12T02:17:16.596Z,8.20
2023-04-12T02:19:44.379Z,8.20
2023-04-12T02:22:12.221Z,8.30
2023-04-12T02:24:40.121Z,8.40
2023-04-12T02:27:07.878Z,8.38
2023-04-12T02:29:36.118Z,8.20
2023-04-12T02:32:04.189Z,8.10
2023-04-12T02:34:36.927Z,8.00
2023-04-12T02:37:04.957Z,7.94
2023-04-12T02:39:32.782Z,7.90
2023-04-12T02:42:01.756Z,7.80
2023-04-12T02:44:31.258Z,7.80
2023-04-12T02:46:59.380Z,7.80
2023-04-12T02:49:27.230Z,7.80
2023-04-12T02:51:55.692Z,7.70
2023-04-12T02:54:23.456Z,7.72
2023-04-12T02:56:51.236Z,7.80
2023-04-12T02:59:19.006Z,7.80
2023-04-12T03:01:47.014Z,7.80
2023-04-12T03:04:15.134Z,7.80
2023-04-12T03:06:52.604Z,7.80
2023-04-12T03:09:20.664Z,7.80
2023-04-12T03:11:48.994Z,7.80
2023-04-12T03:14:17.398Z,7.80
2023-04-12T03:23:43.988Z,8.00
2023-04-12T03:26:11.938Z,8.10
2023-04-12T03:28:41.684Z,8.10
2023-04-12T03:31:10.955Z,8.10
2023-04-12T03:33:39.407Z,8.20
2023-04-12T03:36:08.491Z,8.20
2023-04-12T03:38:36.221Z,8.20
2023-04-12T03:41:04.121Z,8.20
2023-04-12T03:43:36.046Z,8.22
2023-04-12T03:46:05.331Z,8.30
2023-04-12T03:48:33.191Z,8.30
2023-04-12T03:51:08.626Z,8.30
2023-04-12T03:53:37.143Z,8.30
2023-04-12T03:56:06.061Z,8.28
2023-04-12T03:58:34.361Z,8.30
2023-04-12T04:01:06.276Z,8.20
2023-04-12T04:03:35.393Z,8.20
2023-04-12T04:11:57.940Z,8.20
2023-04-12T04:14:26.243Z,8.30
2023-04-12T04:16:55.476Z,8.40
2023-04-12T04:19:23.275Z,8.50
2023-04-12T04:21:51.093Z,8.50
2023-04-12T04:24:19.236Z,8.50
2023-04-12T04:26:46.960Z,8.50
2023-04-12T04:29:14.692Z,8.60
2023-04-12T04:31:42.543Z,8.60
2023-04-12T04:34:12.313Z,8.60
2023-04-12T04:36:41.759Z,8.60
2023-04-12T04:39:09.985Z,8.70
2023-04-12T04:41:41.637Z,8.70
2023-04-12T04:44:09.678Z,8.64
2023-04-12T04:46:38.299Z,8.60
2023-04-12T04:49:07.132Z,8.60
2023-04-12T04:51:34.964Z,8.60
2023-04-12T04:54:03.525Z,8.62
2023-04-12T04:56:32.897Z,8.80
2023-04-12T04:59:02.825Z,8.82
2023-04-12T05:01:32.242Z,8.90
2023-04-12T05:04:00.795Z,8.90
2023-04-12T05:06:28.845Z,8.80
2023-04-12T05:08:57.098Z,8.70
2023-04-12T05:11:25.043Z,8.70
2023-04-12T05:13:53.483Z,8.60
2023-04-12T05:16:21.265Z,8.60
2023-04-12T05:18:49.048Z,8.70
2023-04-12T05:21:16.839Z,8.74
2023-04-12T05:23:47.456Z,8.80
2023-04-12T05:26:15.414Z,8.86
2023-04-12T05:28:43.216Z,8.90
2023-04-12T05:31:11.877Z,9.00
2023-04-12T05:33:39.797Z,8.90
2023-04-12T05:36:07.969Z,8.90
2023-04-12T05:38:36.214Z,9.00
2023-04-12T05:41:04.848Z,9.20
2023-04-12T05:43:33.308Z,9.30
2023-04-12T05:46:01.170Z,9.30
2023-04-12T05:48:29.087Z,9.40
2023-04-12T05:50:57.112Z,9.50
2023-04-12T05:53:25.154Z,9.70
2023-04-12T05:55:54.384Z,9.70
2023-04-12T05:58:22.224Z,9.80
2023-04-12T06:00:50.105Z,9.80
2023-04-12T06:03:18.177Z,10.00
2023-04-12T06:05:46.269Z,10.10
2023-04-12T06:08:15.017Z,10.22
2023-04-12T06:10:42.834Z,10.40
2023-04-12T06:13:10.824Z,10.40
2023-04-12T06:15:39.035Z,10.50
2023-04-12T06:18:09.663Z,10.42
2023-04-12T06:20:40.658Z,10.30
2023-04-12T06:23:08.485Z,10.34
2023-04-12T06:25:39.517Z,10.40
2023-04-12T06:28:08.893Z,10.58
2023-04-12T06:30:38.009Z,10.60
2023-04-12T06:33:05.817Z,10.70
2023-04-12T06:35:33.650Z,10.80
2023-04-12T06:38:01.500Z,10.80
2023-04-12T06:40:29.520Z,10.80
2023-04-12T06:42:57.444Z,10.80
2023-04-12T06:45:28.367Z,10.80
2023-04-12T06:47:57.223Z,10.80
2023-04-12T06:50:27.117Z,10.80
2023-04-12T06:52:55.225Z,10.80
2023-04-12T06:55:22.990Z,10.70
2023-04-12T06:57:52.426Z,10.70
2023-04-12T07:00:20.808Z,10.62
2023-04-12T07:02:48.856Z,10.60
2023-04-12T07:05:17.286Z,10.54
2023-04-12T07:07:45.523Z,10.50
2023-04-12T07:10:13.404Z,10.40
2023-04-12T07:12:42.324Z,10.30
2023-04-12T07:15:10.953Z,10.24
2023-04-12T07:17:56.497Z,10.20
2023-04-12T07:20:25.094Z,10.10
2023-04-12T07:22:53.278Z,10.10
2023-04-12T07:25:21.512Z,10.10
2023-04-12T07:27:51.592Z,10.10
2023-04-12T07:30:23.413Z,10.10
2023-04-12T07:33:00.239Z,10.10
2023-04-12T07:35:34.204Z,10.00
2023-04-12T07:38:02.028Z,10.00
2023-04-12T07:40:30.250Z,10.00
2023-04-12T07:42:58.232Z,9.90
2023-04-12T07:45:26.385Z,10.00
2023-04-12T07:47:54.896Z,10.00
2023-04-12T07:50:22.718Z,10.00
2023-04-12T07:52:50.580Z,9.98
2023-04-12T07:55:18.745Z,10.00
2023-04-12T07:57:46.587Z,10.00
2023-04-12T08:00:15.772Z,10.00
2023-04-12T08:02:43.712Z,10.00
2023-04-12T08:05:11.916Z,10.10
2023-04-12T08:07:39.851Z,10.26
2023-04-12T08:10:08.947Z,10.30
2023-04-12T08:12:36.801Z,10.42
2023-04-12T08:15:05.898Z,10.50
2023-04-12T08:17:35.245Z,10.40
2023-04-12T08:20:04.986Z,10.50
2023-04-12T08:22:32.914Z,10.54
2023-04-12T08:25:00.681Z,10.60
2023-04-12T08:27:30.526Z,10.60
2023-04-12T08:29:58.502Z,10.60
2023-04-12T08:32:26.524Z,10.50
2023-04-12T08:34:56.736Z,10.60
2023-04-12T08:37:27.452Z,10.60
2023-04-12T08:39:55.678Z,10.66
2023-04-12T08:42:23.782Z,10.68
2023-04-12T08:44:53.457Z,10.70
2023-04-12T08:47:21.960Z,10.90
2023-04-12T08:49:49.840Z,11.00
2023-04-12T08:52:17.833Z,11.14
2023-04-12T08:54:46.254Z,11.32
2023-04-12T08:57:18.104Z,11.62
2023-04-12T08:59:50.151Z,11.80
2023-04-12T09:02:18.328Z,11.98
2023-04-12T09:04:53.982Z,12.04
2023-04-12T09:07:23.533Z,12.20
2023-04-12T09:09:51.602Z,12.02
2023-04-12T09:12:20.668Z,11.70
2023-04-12T09:14:48.804Z,11.50
2023-04-12T09:17:28.569Z,11.40
2023-04-12T09:19:56.677Z,11.28
2023-04-12T09:22:45.254Z,11.20
2023-04-12T09:25:14.846Z,11.20
2023-04-12T09:27:51.938Z,11.20
2023-04-12T09:30:21.728Z,11.12
2023-04-12T09:32:49.940Z,11.02
2023-04-12T09:35:18.251Z,11.00
2023-04-12T09:37:46.143Z,11.00
2023-04-12T09:40:14.378Z,11.00
2023-04-12T09:43:00.459Z,11.00
2023-04-12T09:45:28.586Z,10.90
2023-04-12T09:47:56.889Z,10.90
2023-04-12T09:50:33.576Z,10.96
2023-04-12T09:53:03.872Z,10.90
2023-04-12T09:55:32.721Z,11.00
2023-04-12T09:58:04.656Z,11.00
2023-04-12T10:00:34.664Z,11.04
2023-04-12T10:03:02.800Z,11.12
2023-04-12T10:05:31.334Z,11.20
2023-04-12T10:08:00.222Z,11.30
2023-04-12T10:10:28.783Z,11.40
2023-04-12T10:12:58.006Z,11.40
2023-04-12T10:15:26.628Z,11.40
2023-04-12T10:17:55.969Z,11.40
2023-04-12T10:20:27.055Z,11.50
2023-04-12T10:22:59.554Z,11.50
2023-04-12T10:25:31.754Z,11.60
2023-04-12T10:28:19.053Z,11.64
2023-04-12T10:30:52.487Z,11.80
2023-04-12T10:33:27.415Z,11.80
2023-04-12T10:36:03.979Z,11.80
2023-04-12T10:38:46.986Z,11.80
2023-04-12T10:41:20.727Z,11.88
2023-04-12T10:43:52.411Z,12.00
2023-04-12T10:46:38.945Z,12.10
2023-04-12T10:49:10.423Z,12.00
2023-04-12T10:51:38.804Z,11.90
2023-04-12T10:54:16.006Z,11.90
2023-04-12T10:56:47.053Z,11.90
2023-04-12T10:59:16.784Z,11.92
2023-04-12T11:02:10.946Z,12.00
2023-04-12T11:04:39.544Z,11.90
2023-04-12T11:07:11.951Z,11.98
2023-04-12T11:09:43.490Z,12.08
2023-04-12T11:12:16.308Z,12.20
2023-04-12T11:14:50.550Z,12.10
2023-04-12T11:17:18.629Z,12.10
2023-04-12T11:19:55.664Z,12.10
2023-04-12T11:22:30.720Z,12.18
2023-04-12T11:25:01.892Z,12.20
2023-04-12T11:27:31.957Z,12.14
2023-04-12T11:30:01.977Z,12.10
2023-04-12T11:32:32.068Z,12.10
2023-04-12T11:35:00.244Z,12.00
2023-04-12T11:37:30.959Z,11.90
2023-04-12T11:39:59.248Z,11.80
2023-04-12T11:42:29.469Z,11.64
2023-04-12T11:45:01.077Z,11.50
2023-04-12T11:47:30.105Z,11.50
2023-04-12T11:50:00.077Z,11.40
2023-04-12T11:52:33.695Z,11.40
2023-04-12T11:55:08.773Z,11.40
2023-04-12T11:57:39.485Z,11.30
2023-04-12T12:00:08.848Z,11.20
2023-04-12T12:02:43.766Z,11.20
2023-04-12T12:05:21.715Z,11.10
2023-04-12T12:07:50.260Z,11.10
2023-04-12T12:10:32.491Z,11.10
2023-04-12T12:13:14.255Z,11.10
2023-04-12T12:15:46.240Z,11.20
2023-04-12T12:18:14.145Z,11.30
2023-04-12T12:20:51.694Z,11.36
2023-04-12T12:23:32.118Z,11.30
2023-04-12T12:26:17.850Z,11.24
2023-04-12T12:28:57.196Z,11.20
2023-04-12T12:31:31.339Z,11.30
2023-04-12T12:34:05.848Z,11.50
2023-04-12T12:36:39.006Z,11.60
2023-04-12T12:39:12.840Z,11.74
2023-04-12T12:41:41.530Z,12.00
2023-04-12T12:44:12.315Z,12.10
2023-04-12T12:46:53.571Z,12.20
2023-04-12T12:49:23.535Z,12.20
2023-04-12T12:51:52.278Z,12.22
2023-04-12T12:54:36.882Z,12.30
2023-04-12T12:57:08.246Z,12.10
2023-04-12T12:59:36.251Z,12.10
2023-04-12T13:02:05.516Z,12.06
2023-04-12T13:04:34.704Z,12.10
2023-04-12T13:07:02.977Z,12.10
2023-04-12T13:09:31.736Z,12.10
2023-04-12T13:11:59.589Z,12.00
2023-04-12T13:14:27.556Z,12.10
2023-04-12T13:16:55.446Z,12.30
2023-04-12T13:19:23.776Z,12.40
2023-04-12T13:23:22.052Z,12.60
2023-04-12T13:25:49.906Z,12.92
2023-04-12T13:28:18.010Z,13.20
2023-04-12T13:30:48.979Z,13.30
2023-04-12T13:33:19.308Z,13.30
2023-04-12T13:35:49.858Z,13.30
2023-04-12T13:38:18.157Z,13.56
2023-04-12T13:40:46.049Z,13.60
2023-04-12T13:43:14.070Z,13.60
2023-04-12T13:45:42.479Z,13.60
2023-04-12T13:48:10.724Z,13.72
2023-04-12T13:50:38.933Z,13.74
2023-04-12T13:53:07.219Z,13.70
2023-04-12T13:55:35.113Z,13.60
2023-04-12T13:58:03.040Z,13.60
2023-04-12T14:00:31.014Z,13.50
2023-04-12T14:02:59.207Z,13.40
2023-04-12T14:05:27.376Z,13.20
2023-04-12T14:07:56.188Z,13.40
2023-04-12T14:10:24.268Z,13.60
2023-04-12T14:12:52.268Z,13.48
2023-04-12T14:15:20.346Z,13.40
2023-04-12T14:17:48.639Z,13.68
2023-04-12T14:20:19.358Z,13.76
2023-04-12T14:22:47.601Z,13.70
2023-04-12T14:25:15.941Z,13.86
2023-04-12T14:27:44.977Z,14.00
2023-04-12T14:30:13.425Z,14.00
2023-04-12T14:32:41.716Z,14.20
2023-04-12T14:35:09.893Z,14.28
2023-04-12T14:37:39.527Z,14.20
2023-04-12T14:40:08.657Z,14.08
2023-04-12T14:42:37.752Z,13.80
2023-04-12T14:45:08.267Z,13.72
2023-04-12T14:47:36.392Z,13.60
2023-04-12T14:50:04.823Z,13.70
2023-04-12T14:52:33.109Z,13.70
2023-04-12T14:55:01.700Z,13.66
2023-04-12T14:57:29.569Z,13.60
2023-04-12T14:59:57.771Z,13.60
2023-04-12T15:02:26.382Z,13.52
2023-04-12T15:04:54.689Z,13.50
2023-04-12T15:07:22.601Z,13.50
2023-04-12T15:09:51.034Z,13.32
2023-04-12T15:12:19.032Z,13.20
2023-04-12T15:14:47.583Z,13.02
2023-04-12T15:17:15.644Z,12.90
2023-04-12T15:19:43.879Z,12.80
2023-04-12T15:22:12.035Z,12.80
2023-04-12T15:24:40.451Z,12.80
2023-04-12T15:27:08.758Z,12.76
2023-04-12T15:29:36.804Z,12.70
2023-04-12T15:32:04.837Z,12.70
2023-04-12T15:34:34.293Z,12.60
2023-04-12T15:37:02.846Z,12.52
2023-04-12T15:39:30.890Z,12.50
2023-04-12T15:42:00.657Z,12.40
2023-04-12T15:44:32.118Z,12.40
2023-04-12T15:47:11.074Z,12.36
2023-04-12T15:49:40.287Z,12.38
2023-04-12T15:52:08.390Z,12.30
2023-04-12T15:54:43.609Z,12.30
2023-04-12T15:57:12.461Z,12.20
2023-04-12T15:59:40.955Z,12.20
2023-04-12T16:02:16.109Z,12.20
2023-04-12T16:04:47.636Z,12.20
2023-04-12T16:07:15.911Z,12.20
2023-04-12T16:09:43.934Z,12.20
2023-04-12T16:12:12.003Z,12.20
2023-04-12T16:14:40.060Z,12.20
2023-04-12T16:17:08.669Z,12.20
2023-04-12T16:19:36.528Z,12.20
2023-04-12T16:22:04.595Z,12.20
2023-04-12T16:24:33.445Z,12.16
2023-04-12T16:27:01.578Z,12.10
2023-04-12T16:29:31.754Z,12.10
2023-04-12T16:31:59.706Z,12.10
2023-04-12T16:34:27.810Z,12.10
2023-04-12T16:36:58.339Z,12.10
2023-04-12T16:39:26.974Z,12.18
2023-04-12T16:41:54.820Z,12.20
2023-04-12T16:44:22.839Z,12.20
2023-04-12T16:46:50.844Z,12.20
2023-04-12T16:49:19.857Z,12.20
2023-04-12T16:51:50.563Z,12.20
2023-04-12T16:54:19.353Z,12.10
2023-04-12T16:56:47.890Z,12.10
2023-04-12T16:59:15.839Z,12.10
2023-04-12T17:01:44.483Z,12.06
2023-04-12T17:04:13.396Z,12.10
2023-04-12T17:06:43.071Z,12.08
2023-04-12T17:09:11.696Z,12.00
2023-04-12T17:11:40.300Z,12.00
2023-04-12T17:14:09.355Z,12.10
2023-04-12T17:16:38.010Z,12.12
2023-04-12T17:21:44.963Z,12.00
2023-04-12T17:24:12.721Z,11.80
2023-04-12T17:26:40.626Z,11.70
2023-04-12T17:29:09.381Z,11.60
2023-04-12T17:31:37.882Z,11.60
2023-04-12T17:34:06.521Z,11.48
2023-04-12T17:36:34.767Z,11.40
2023-04-12T17:39:06.275Z,11.24
2023-04-12T17:41:34.213Z,11.20
2023-04-12T17:44:02.663Z,11.10
2023-04-12T17:46:31.161Z,11.00
2023-04-12T17:49:00.280Z,11.00
2023-04-12T17:51:32.408Z,10.90
2023-04-12T17:54:01.028Z,10.90
2023-04-12T17:56:29.468Z,10.80
2023-04-12T17:58:58.635Z,10.80
2023-04-12T18:01:27.670Z,10.70
2023-04-12T18:03:57.700Z,10.70
2023-04-12T18:06:26.812Z,10.58
2023-04-12T18:08:55.394Z,10.50
2023-04-12T18:11:24.145Z,10.40
2023-04-12T18:13:52.624Z,10.30
2023-04-12T18:16:20.563Z,10.30
2023-04-12T18:18:48.983Z,10.30
2023-04-12T18:21:21.340Z,10.20
2023-04-12T18:23:51.033Z,10.10
2023-04-12T18:26:19.365Z,10.10
2023-04-12T18:28:47.367Z,10.10
2023-04-12T18:31:16.550Z,10.00
2023-04-12T18:33:46.865Z,10.00
2023-04-12T18:36:15.178Z,10.00
2023-04-12T18:38:44.401Z,10.00
2023-04-12T18:41:15.688Z,10.00
2023-04-12T18:43:43.765Z,9.90
2023-04-12T18:46:17.552Z,9.90
2023-04-12T18:48:48.216Z,9.90
2023-04-12T18:51:16.479Z,9.80
2023-04-12T18:53:45.428Z,9.70
2023-04-12T18:56:18.379Z,9.70
2023-04-12T19:01:20.340Z,9.50
2023-04-12T19:03:49.856Z,9.40
2023-04-12T19:06:18.661Z,9.40
2023-04-12T19:08:48.620Z,9.40
2023-04-12T19:11:17.783Z,9.38
2023-04-12T19:13:46.828Z,9.38
2023-04-12T19:16:16.478Z,9.30
2023-04-12T19:18:45.118Z,9.26
2023-04-12T19:21:13.268Z,9.20
2023-04-12T19:23:41.875Z,9.20
2023-04-12T19:26:10.034Z,9.20
2023-04-12T19:28:41.293Z,9.20
2023-04-12T19:31:10.711Z,9.14
2023-04-12T19:33:41.650Z,9.10
2023-04-12T19:36:10.849Z,9.06
2023-04-12T19:38:41.543Z,9.00
2023-04-12T19:41:10.584Z,9.00
2023-04-12T19:43:38.968Z,9.00
2023-04-12T19:46:07.621Z,8.90
2023-04-12T19:48:36.173Z,8.90
2023-04-12T19:51:05.472Z,8.80
2023-04-12T19:53:34.203Z,8.70
2023-04-12T19:56:04.357Z,8.70
2023-04-12T19:58:33.729Z,8.60
2023-04-12T20:01:02.816Z,8.58
2023-04-12T20:03:31.379Z,8.40
2023-04-12T20:05:59.621Z,8.30
2023-04-12T20:08:29.620Z,8.10
2023-04-12T20:10:57.619Z,8.00
2023-04-12T20:13:25.429Z,7.90
2023-04-12T20:15:54.174Z,7.72
2023-04-12T20:18:22.413Z,7.62
2023-04-12T20:20:51.135Z,7.60
2023-04-12T20:23:19.789Z,7.50
2023-04-12T20:25:49.178Z,7.50
2023-04-12T20:28:17.068Z,7.48
2023-04-12T20:30:48.138Z,7.50
2023-04-12T20:33:16.111Z,7.50
2023-04-12T20:35:44.077Z,7.60
2023-04-12T20:38:13.325Z,7.64
2023-04-12T20:40:41.472Z,7.70
2023-04-12T20:43:10.595Z,7.70
2023-04-12T20:45:38.709Z,7.70
2023-04-12T20:48:06.847Z,7.78
2023-04-12T20:50:35.206Z,7.70
2023-04-12T20:53:03.250Z,7.80
2023-04-12T20:55:33.136Z,7.80
2023-04-12T20:58:03.697Z,7.90
2023-04-12T21:00:32.810Z,7.90
2023-04-12T21:03:02.862Z,7.90
2023-04-12T21:05:34.757Z,7.90
2023-04-12T21:08:02.611Z,7.90
2023-04-12T21:10:30.534Z,7.90
2023-04-12T21:13:01.986Z,7.90
2023-04-12T21:15:30.306Z,7.80
2023-04-12T21:17:58.293Z,7.72
2023-04-12T21:20:26.759Z,7.70
2023-04-12T21:22:54.649Z,7.60
2023-04-12T21:25:23.042Z,7.56
2023-04-12T21:27:50.871Z,7.58
2023-04-12T21:30:19.162Z,7.60
2023-04-12T21:32:49.168Z,7.50
2023-04-12T21:35:18.395Z,7.40
2023-04-12T21:37:46.820Z,7.40
2023-04-12T21:40:15.392Z,7.30
2023-04-12T21:42:44.969Z,7.20
2023-04-12T21:45:16.568Z,7.20
2023-04-12T21:47:44.783Z,7.18
2023-04-12T21:50:12.902Z,7.20
2023-04-12T21:52:41.815Z,7.20
2023-04-12T21:55:09.719Z,7.16
2023-04-12T21:57:37.618Z,7.10
2023-04-12T22:00:08.995Z,7.12
2023-04-12T22:02:36.985Z,7.20
2023-04-12T22:05:05.424Z,7.20
2023-04-12T22:07:33.759Z,7.20
2023-04-12T22:10:02.699Z,7.20
2023-04-12T22:12:33.956Z,7.20
2023-04-12T22:15:01.785Z,7.20
2023-04-12T22:17:30.200Z,7.20
2023-04-12T22:19:58.285Z,7.10
2023-04-12T22:22:31.818Z,6.90
2023-04-12T22:25:00.349Z,6.70
2023-04-12T22:27:28.610Z,6.60
2023-04-12T22:29:58.551Z,6.50
2023-04-12T22:32:26.762Z,6.40
2023-04-12T22:35:05.184Z,6.30
2023-04-12T22:37:41.565Z,6.30
2023-04-12T22:40:13.624Z,6.30
2023-04-12T22:42:51.771Z,6.30
2023-04-12T22:45:19.589Z,6.20
2023-04-12T22:47:47.797Z,6.20
2023-04-12T22:50:15.761Z,6.30
2023-04-12T22:52:43.586Z,6.30
2023-04-12T22:55:14.660Z,6.30
2023-04-12T22:57:42.495Z,6.20
2023-04-12T23:00:16.359Z,6.20
2023-04-12T23:02:46.554Z,6.30
2023-04-12T23:05:14.771Z,6.30
2023-04-12T23:07:43.720Z,6.40
2023-04-12T23:10:12.437Z,6.34
2023-04-12T23:12:40.376Z,6.30
2023-04-12T23:15:09.272Z,6.30
2023-04-12T23:17:37.430Z,6.20
2023-04-12T23:20:12.224Z,6.18
2023-04-12T23:22:57.215Z,6.20
2023-04-12T23:25:41.760Z,6.30
2023-04-12T23:28:15.814Z,6.30
2023-04-12T23:30:49.947Z,6.30
2023-04-12T23:33:21.266Z,6.30
2023-04-12T23:35:52.926Z,6.20
2023-04-12T23:38:26.202Z,6.10
2023-04-12T23:40:54.410Z,6.00
2023-04-12T23:43:25.683Z,5.90
2023-04-12T23:45:53.869Z,5.80
2023-04-12T23:48:23.390Z,5.80
2023-04-12T23:50:52.230Z,5.90
2023-04-12T23:53:21.052Z,6.00
2023-04-12T23:55:52.076Z,6.00
2023-04-12T23:58:21.209Z,6.00
